sensor_id;sensor_type;location;lat;lon;timestamp;P1;durP1;ratioP1;P2;durP2;ratioP2
249;SDS011;109;19.806;-70.704;2023-06-26T00:01:01;14.20;;;4.67;;
249;SDS011;109;19.806;-70.704;2023-06-26T00:03:27;18.70;;;4.43;;
249;SDS011;109;19.806;-70.704;2023-06-26T00:05:54;20.90;;;4.77;;
249;SDS011;109;19.806;-70.704;2023-06-26T00:08:26;19.03;;;5.07;;
249;SDS011;109;19.806;-70.704;2023-06-26T00:10:53;17.97;;;4.13;;
249;SDS011;109;19.806;-70.704;2023-06-26T00:13:20;11.93;;;4.07;;
249;SDS011;109;19.806;-70.704;2023-06-26T00:15:47;12.13;;;4.07;;
249;SDS011;109;19.806;-70.704;2023-06-26T00:18:14;15.23;;;4.40;;
249;SDS011;109;19.806;-70.704;2023-06-26T00:20:40;16.10;;;4.23;;
249;SDS011;109;19.806;-70.704;2023-06-26T00:23:07;11.90;;;3.40;;
249;SDS011;109;19.806;-70.704;2023-06-26T00:25:33;12.70;;;4.60;;
249;SDS011;109;19.806;-70.704;2023-06-26T00:28:00;19.93;;;4.27;;
249;SDS011;109;19.806;-70.704;2023-06-26T00:30:27;11.60;;;4.30;;
249;SDS011;109;19.806;-70.704;2023-06-26T00:32:59;13.73;;;3.63;;
249;SDS011;109;19.806;-70.704;2023-06-26T00:35:26;10.30;;;4.23;;
249;SDS011;109;19.806;-70.704;2023-06-26T00:37:59;16.23;;;4.00;;
249;SDS011;109;19.806;-70.704;2023-06-26T00:40:48;15.10;;;4.87;;
249;SDS011;109;19.806;-70.704;2023-06-26T00:43:21;8.40;;;3.80;;
249;SDS011;109;19.806;-70.704;2023-06-26T00:45:48;12.60;;;4.30;;
249;SDS011;109;19.806;-70.704;2023-06-26T00:48:21;23.73;;;5.10;;
249;SDS011;109;19.806;-70.704;2023-06-26T00:50:50;21.03;;;4.73;;
249;SDS011;109;19.806;-70.704;2023-06-26T00:53:23;13.17;;;4.40;;
249;SDS011;109;19.806;-70.704;2023-06-26T00:55:49;8.33;;;3.83;;
249;SDS011;109;19.806;-70.704;2023-06-26T00:58:23;12.40;;;4.43;;
249;SDS011;109;19.806;-70.704;2023-06-26T01:00:51;20.73;;;4.37;;
249;SDS011;109;19.806;-70.704;2023-06-26T01:03:25;16.83;;;4.60;;
249;SDS011;109;19.806;-70.704;2023-06-26T01:05:56;16.37;;;4.10;;
249;SDS011;109;19.806;-70.704;2023-06-26T01:08:31;12.53;;;3.73;;
249;SDS011;109;19.806;-70.704;2023-06-26T01:10:58;15.93;;;4.50;;
249;SDS011;109;19.806;-70.704;2023-06-26T01:13:32;32.37;;;5.00;;
249;SDS011;109;19.806;-70.704;2023-06-26T01:16:00;13.97;;;4.00;;
249;SDS011;109;19.806;-70.704;2023-06-26T01:18:35;12.70;;;4.23;;
249;SDS011;109;19.806;-70.704;2023-06-26T01:21:03;13.23;;;5.20;;
249;SDS011;109;19.806;-70.704;2023-06-26T01:26:22;17.20;;;4.93;;
249;SDS011;109;19.806;-70.704;2023-06-26T01:28:52;10.70;;;4.43;;
249;SDS011;109;19.806;-70.704;2023-06-26T01:31:26;16.00;;;5.47;;
249;SDS011;109;19.806;-70.704;2023-06-26T01:34:03;14.60;;;4.70;;
249;SDS011;109;19.806;-70.704;2023-06-26T01:36:36;11.90;;;4.47;;
249;SDS011;109;19.806;-70.704;2023-06-26T01:39:24;12.10;;;4.30;;
249;SDS011;109;19.806;-70.704;2023-06-26T01:41:56;12.67;;;4.63;;
249;SDS011;109;19.806;-70.704;2023-06-26T01:44:26;14.47;;;4.17;;
249;SDS011;109;19.806;-70.704;2023-06-26T01:47:01;13.80;;;4.47;;
249;SDS011;109;19.806;-70.704;2023-06-26T01:49:45;10.90;;;4.50;;
249;SDS011;109;19.806;-70.704;2023-06-26T01:55:02;10.30;;;5.10;;
249;SDS011;109;19.806;-70.704;2023-06-26T01:57:41;8.40;;;4.60;;
249;SDS011;109;19.806;-70.704;2023-06-26T02:00:09;12.73;;;5.20;;
249;SDS011;109;19.806;-70.704;2023-06-26T02:02:44;12.67;;;4.90;;
249;SDS011;109;19.806;-70.704;2023-06-26T02:05:13;14.00;;;4.93;;
249;SDS011;109;19.806;-70.704;2023-06-26T02:07:46;13.80;;;4.90;;
249;SDS011;109;19.806;-70.704;2023-06-26T02:10:13;12.03;;;4.90;;
249;SDS011;109;19.806;-70.704;2023-06-26T02:12:46;11.43;;;5.03;;
249;SDS011;109;19.806;-70.704;2023-06-26T02:15:14;13.90;;;5.13;;
249;SDS011;109;19.806;-70.704;2023-06-26T02:17:46;14.30;;;4.30;;
249;SDS011;109;19.806;-70.704;2023-06-26T02:20:14;16.70;;;4.70;;
249;SDS011;109;19.806;-70.704;2023-06-26T02:22:48;13.50;;;4.50;;
249;SDS011;109;19.806;-70.704;2023-06-26T02:25:14;8.60;;;3.93;;
249;SDS011;109;19.806;-70.704;2023-06-26T02:27:47;11.13;;;4.63;;
249;SDS011;109;19.806;-70.704;2023-06-26T02:30:14;6.73;;;3.90;;
249;SDS011;109;19.806;-70.704;2023-06-26T02:32:55;11.77;;;4.40;;
249;SDS011;109;19.806;-70.704;2023-06-26T02:35:28;14.50;;;4.90;;
249;SDS011;109;19.806;-70.704;2023-06-26T02:37:55;8.77;;;4.40;;
249;SDS011;109;19.806;-70.704;2023-06-26T02:40:28;15.93;;;4.43;;
249;SDS011;109;19.806;-70.704;2023-06-26T02:43:08;13.30;;;4.30;;
249;SDS011;109;19.806;-70.704;2023-06-26T02:45:34;12.50;;;3.90;;
249;SDS011;109;19.806;-70.704;2023-06-26T02:48:07;11.13;;;4.67;;
249;SDS011;109;19.806;-70.704;2023-06-26T02:50:34;7.07;;;4.30;;
249;SDS011;109;19.806;-70.704;2023-06-26T02:53:12;11.93;;;4.40;;
249;SDS011;109;19.806;-70.704;2023-06-26T02:55:46;11.30;;;4.90;;
249;SDS011;109;19.806;-70.704;2023-06-26T02:58:14;15.60;;;5.20;;
249;SDS011;109;19.806;-70.704;2023-06-26T03:00:48;10.03;;;4.17;;
249;SDS011;109;19.806;-70.704;2023-06-26T03:03:16;11.07;;;5.03;;
249;SDS011;109;19.806;-70.704;2023-06-26T03:05:50;9.03;;;4.43;;
249;SDS011;109;19.806;-70.704;2023-06-26T03:08:16;15.33;;;4.37;;
249;SDS011;109;19.806;-70.704;2023-06-26T03:10:51;7.63;;;4.60;;
249;SDS011;109;19.806;-70.704;2023-06-26T03:13:18;17.17;;;4.87;;
249;SDS011;109;19.806;-70.704;2023-06-26T03:15:52;14.10;;;4.80;;
249;SDS011;109;19.806;-70.704;2023-06-26T03:18:19;24.60;;;4.93;;
249;SDS011;109;19.806;-70.704;2023-06-26T03:20:52;11.80;;;4.30;;
249;SDS011;109;19.806;-70.704;2023-06-26T03:23:21;10.43;;;4.57;;
249;SDS011;109;19.806;-70.704;2023-06-26T03:25:55;13.93;;;5.27;;
249;SDS011;109;19.806;-70.704;2023-06-26T03:28:30;9.30;;;4.80;;
249;SDS011;109;19.806;-70.704;2023-06-26T03:31:03;11.10;;;4.20;;
249;SDS011;109;19.806;-70.704;2023-06-26T03:33:37;8.70;;;4.90;;
249;SDS011;109;19.806;-70.704;2023-06-26T03:36:11;13.47;;;4.13;;
249;SDS011;109;19.806;-70.704;2023-06-26T03:38:38;16.07;;;4.60;;
249;SDS011;109;19.806;-70.704;2023-06-26T03:41:12;14.50;;;4.77;;
249;SDS011;109;19.806;-70.704;2023-06-26T03:43:51;36.37;;;6.13;;
249;SDS011;109;19.806;-70.704;2023-06-26T03:46:21;9.93;;;4.47;;
249;SDS011;109;19.806;-70.704;2023-06-26T03:48:53;15.60;;;4.40;;
249;SDS011;109;19.806;-70.704;2023-06-26T03:51:20;14.07;;;5.13;;
249;SDS011;109;19.806;-70.704;2023-06-26T03:53:54;8.10;;;4.40;;
249;SDS011;109;19.806;-70.704;2023-06-26T03:56:20;14.80;;;5.07;;
249;SDS011;109;19.806;-70.704;2023-06-26T03:58:54;14.53;;;5.20;;
249;SDS011;109;19.806;-70.704;2023-06-26T04:01:20;13.17;;;5.27;;
249;SDS011;109;19.806;-70.704;2023-06-26T04:03:54;18.93;;;5.23;;
249;SDS011;109;19.806;-70.704;2023-06-26T04:06:20;12.17;;;5.30;;
249;SDS011;109;19.806;-70.704;2023-06-26T04:08:54;17.17;;;5.03;;
249;SDS011;109;19.806;-70.704;2023-06-26T04:11:20;14.53;;;5.50;;
249;SDS011;109;19.806;-70.704;2023-06-26T04:13:54;11.47;;;5.13;;
249;SDS011;109;19.806;-70.704;2023-06-26T04:16:21;14.60;;;5.90;;
249;SDS011;109;19.806;-70.704;2023-06-26T04:18:57;14.20;;;5.67;;
249;SDS011;109;19.806;-70.704;2023-06-26T04:21:23;10.13;;;5.33;;
249;SDS011;109;19.806;-70.704;2023-06-26T04:23:58;13.33;;;5.33;;
249;SDS011;109;19.806;-70.704;2023-06-26T04:26:25;13.50;;;5.70;;
249;SDS011;109;19.806;-70.704;2023-06-26T04:29:00;12.50;;;5.33;;
249;SDS011;109;19.806;-70.704;2023-06-26T04:31:34;11.30;;;5.03;;
249;SDS011;109;19.806;-70.704;2023-06-26T04:34:07;20.40;;;6.30;;
249;SDS011;109;19.806;-70.704;2023-06-26T04:36:34;16.10;;;5.73;;
249;SDS011;109;19.806;-70.704;2023-06-26T04:39:12;10.30;;;5.10;;
249;SDS011;109;19.806;-70.704;2023-06-26T04:41:58;28.57;;;6.90;;
249;SDS011;109;19.806;-70.704;2023-06-26T04:44:31;21.63;;;5.80;;
249;SDS011;109;19.806;-70.704;2023-06-26T04:46:58;14.23;;;6.13;;
249;SDS011;109;19.806;-70.704;2023-06-26T04:49:32;11.13;;;5.97;;
249;SDS011;109;19.806;-70.704;2023-06-26T04:51:58;13.80;;;5.73;;
249;SDS011;109;19.806;-70.704;2023-06-26T04:54:31;18.53;;;6.03;;
249;SDS011;109;19.806;-70.704;2023-06-26T04:56:58;12.07;;;5.83;;
249;SDS011;109;19.806;-70.704;2023-06-26T04:59:32;13.40;;;6.20;;
249;SDS011;109;19.806;-70.704;2023-06-26T05:01:58;17.20;;;5.93;;
249;SDS011;109;19.806;-70.704;2023-06-26T05:04:32;18.53;;;6.83;;
249;SDS011;109;19.806;-70.704;2023-06-26T05:06:58;14.93;;;6.00;;
249;SDS011;109;19.806;-70.704;2023-06-26T05:09:31;21.90;;;7.20;;
249;SDS011;109;19.806;-70.704;2023-06-26T05:12:05;14.67;;;5.93;;
249;SDS011;109;19.806;-70.704;2023-06-26T05:14:39;13.43;;;5.93;;
249;SDS011;109;19.806;-70.704;2023-06-26T05:17:05;17.23;;;6.97;;
249;SDS011;109;19.806;-70.704;2023-06-26T05:19:38;15.40;;;6.50;;
249;SDS011;109;19.806;-70.704;2023-06-26T05:22:04;11.33;;;5.57;;
249;SDS011;109;19.806;-70.704;2023-06-26T05:24:40;14.73;;;6.13;;
249;SDS011;109;19.806;-70.704;2023-06-26T05:27:06;10.27;;;5.67;;
249;SDS011;109;19.806;-70.704;2023-06-26T05:29:40;17.60;;;5.80;;
249;SDS011;109;19.806;-70.704;2023-06-26T05:32:07;16.70;;;5.83;;
249;SDS011;109;19.806;-70.704;2023-06-26T05:34:41;15.67;;;5.20;;
249;SDS011;109;19.806;-70.704;2023-06-26T05:37:07;12.10;;;5.20;;
249;SDS011;109;19.806;-70.704;2023-06-26T05:39:41;17.20;;;5.50;;
249;SDS011;109;19.806;-70.704;2023-06-26T05:42:20;14.67;;;5.43;;
249;SDS011;109;19.806;-70.704;2023-06-26T05:44:47;10.53;;;5.87;;
249;SDS011;109;19.806;-70.704;2023-06-26T05:47:28;13.67;;;5.60;;
249;SDS011;109;19.806;-70.704;2023-06-26T05:50:02;14.90;;;6.40;;
249;SDS011;109;19.806;-70.704;2023-06-26T05:52:29;12.93;;;5.03;;
249;SDS011;109;19.806;-70.704;2023-06-26T05:55:02;14.13;;;5.50;;
249;SDS011;109;19.806;-70.704;2023-06-26T05:57:29;12.93;;;5.67;;
249;SDS011;109;19.806;-70.704;2023-06-26T06:00:03;9.63;;;5.13;;
249;SDS011;109;19.806;-70.704;2023-06-26T06:02:42;10.93;;;5.40;;
249;SDS011;109;19.806;-70.704;2023-06-26T06:05:09;11.20;;;4.87;;
249;SDS011;109;19.806;-70.704;2023-06-26T06:07:43;18.83;;;5.27;;
249;SDS011;109;19.806;-70.704;2023-06-26T06:10:09;7.13;;;4.50;;
249;SDS011;109;19.806;-70.704;2023-06-26T06:12:43;7.33;;;4.60;;
249;SDS011;109;19.806;-70.704;2023-06-26T06:15:09;13.17;;;4.77;;
249;SDS011;109;19.806;-70.704;2023-06-26T06:17:42;11.27;;;4.53;;
249;SDS011;109;19.806;-70.704;2023-06-26T06:20:09;10.77;;;4.63;;
249;SDS011;109;19.806;-70.704;2023-06-26T06:22:43;16.73;;;4.73;;
249;SDS011;109;19.806;-70.704;2023-06-26T06:25:09;10.53;;;5.00;;
249;SDS011;109;19.806;-70.704;2023-06-26T06:27:41;11.53;;;4.70;;
249;SDS011;109;19.806;-70.704;2023-06-26T06:30:16;10.00;;;4.40;;
249;SDS011;109;19.806;-70.704;2023-06-26T06:32:50;13.63;;;4.53;;
249;SDS011;109;19.806;-70.704;2023-06-26T06:35:18;15.40;;;4.63;;
249;SDS011;109;19.806;-70.704;2023-06-26T06:37:51;8.13;;;4.07;;
249;SDS011;109;19.806;-70.704;2023-06-26T06:40:38;10.73;;;3.90;;
249;SDS011;109;19.806;-70.704;2023-06-26T06:43:12;17.40;;;4.87;;
249;SDS011;109;19.806;-70.704;2023-06-26T06:45:38;9.87;;;4.60;;
249;SDS011;109;19.806;-70.704;2023-06-26T06:48:12;12.60;;;4.33;;
249;SDS011;109;19.806;-70.704;2023-06-26T06:50:38;9.10;;;4.00;;
249;SDS011;109;19.806;-70.704;2023-06-26T06:53:10;12.07;;;4.87;;
249;SDS011;109;19.806;-70.704;2023-06-26T06:55:37;13.40;;;4.97;;
249;SDS011;109;19.806;-70.704;2023-06-26T06:58:09;9.97;;;4.30;;
249;SDS011;109;19.806;-70.704;2023-06-26T07:00:36;8.80;;;4.00;;
249;SDS011;109;19.806;-70.704;2023-06-26T07:03:08;13.20;;;4.70;;
249;SDS011;109;19.806;-70.704;2023-06-26T07:05:36;13.13;;;4.30;;
249;SDS011;109;19.806;-70.704;2023-06-26T07:08:17;20.70;;;4.20;;
249;SDS011;109;19.806;-70.704;2023-06-26T07:10:50;11.93;;;4.70;;
249;SDS011;109;19.806;-70.704;2023-06-26T07:13:17;15.37;;;4.47;;
249;SDS011;109;19.806;-70.704;2023-06-26T07:15:49;6.77;;;3.80;;
249;SDS011;109;19.806;-70.704;2023-06-26T07:18:16;12.00;;;4.30;;
249;SDS011;109;19.806;-70.704;2023-06-26T07:20:49;9.50;;;4.43;;
249;SDS011;109;19.806;-70.704;2023-06-26T07:23:15;9.40;;;4.10;;
249;SDS011;109;19.806;-70.704;2023-06-26T07:25:47;8.97;;;5.40;;
249;SDS011;109;19.806;-70.704;2023-06-26T07:28:14;7.37;;;4.10;;
249;SDS011;109;19.806;-70.704;2023-06-26T07:30:48;11.73;;;4.73;;
249;SDS011;109;19.806;-70.704;2023-06-26T07:33:14;11.17;;;3.93;;
249;SDS011;109;19.806;-70.704;2023-06-26T07:35:48;8.70;;;3.93;;
249;SDS011;109;19.806;-70.704;2023-06-26T07:38:14;10.20;;;4.77;;
249;SDS011;109;19.806;-70.704;2023-06-26T07:40:46;9.40;;;4.67;;
249;SDS011;109;19.806;-70.704;2023-06-26T07:43:26;10.60;;;4.40;;
249;SDS011;109;19.806;-70.704;2023-06-26T07:45:53;10.40;;;4.77;;
249;SDS011;109;19.806;-70.704;2023-06-26T07:48:26;15.60;;;5.10;;
249;SDS011;109;19.806;-70.704;2023-06-26T07:50:52;14.53;;;4.70;;
249;SDS011;109;19.806;-70.704;2023-06-26T07:53:32;12.97;;;4.30;;
249;SDS011;109;19.806;-70.704;2023-06-26T07:56:06;11.33;;;4.40;;
249;SDS011;109;19.806;-70.704;2023-06-26T07:58:32;13.20;;;4.37;;
249;SDS011;109;19.806;-70.704;2023-06-26T08:01:05;26.33;;;4.50;;
249;SDS011;109;19.806;-70.704;2023-06-26T08:03:32;11.87;;;4.30;;
249;SDS011;109;19.806;-70.704;2023-06-26T08:06:05;13.13;;;4.37;;
249;SDS011;109;19.806;-70.704;2023-06-26T08:08:31;11.27;;;3.67;;
249;SDS011;109;19.806;-70.704;2023-06-26T08:11:05;17.80;;;4.50;;
249;SDS011;109;19.806;-70.704;2023-06-26T08:13:31;12.50;;;4.90;;
249;SDS011;109;19.806;-70.704;2023-06-26T08:16:04;10.20;;;4.40;;
249;SDS011;109;19.806;-70.704;2023-06-26T08:18:30;8.27;;;4.50;;
249;SDS011;109;19.806;-70.704;2023-06-26T08:21:04;12.30;;;4.10;;
249;SDS011;109;19.806;-70.704;2023-06-26T08:23:30;14.53;;;4.00;;
249;SDS011;109;19.806;-70.704;2023-06-26T08:26:02;7.60;;;4.20;;
249;SDS011;109;19.806;-70.704;2023-06-26T08:28:29;16.07;;;4.50;;
249;SDS011;109;19.806;-70.704;2023-06-26T08:31:01;12.20;;;4.37;;
249;SDS011;109;19.806;-70.704;2023-06-26T08:33:28;14.03;;;4.80;;
249;SDS011;109;19.806;-70.704;2023-06-26T08:36:00;14.33;;;4.40;;
249;SDS011;109;19.806;-70.704;2023-06-26T08:38:27;11.03;;;4.10;;
249;SDS011;109;19.806;-70.704;2023-06-26T08:41:00;11.10;;;4.20;;
249;SDS011;109;19.806;-70.704;2023-06-26T08:43:39;7.83;;;4.17;;
249;SDS011;109;19.806;-70.704;2023-06-26T08:46:14;11.03;;;4.30;;
249;SDS011;109;19.806;-70.704;2023-06-26T08:49:00;14.27;;;4.53;;
249;SDS011;109;19.806;-70.704;2023-06-26T08:51:39;12.37;;;4.47;;
249;SDS011;109;19.806;-70.704;2023-06-26T08:54:22;9.27;;;4.50;;
249;SDS011;109;19.806;-70.704;2023-06-26T08:57:01;11.40;;;4.33;;
249;SDS011;109;19.806;-70.704;2023-06-26T08:59:29;11.17;;;4.33;;
249;SDS011;109;19.806;-70.704;2023-06-26T09:02:03;7.33;;;4.20;;
249;SDS011;109;19.806;-70.704;2023-06-26T09:04:30;11.57;;;4.60;;
249;SDS011;109;19.806;-70.704;2023-06-26T09:07:03;9.20;;;3.83;;
249;SDS011;109;19.806;-70.704;2023-06-26T09:09:29;7.73;;;4.33;;
249;SDS011;109;19.806;-70.704;2023-06-26T09:12:03;6.37;;;3.93;;
249;SDS011;109;19.806;-70.704;2023-06-26T09:14:46;11.77;;;4.57;;
249;SDS011;109;19.806;-70.704;2023-06-26T09:17:13;10.60;;;5.13;;
249;SDS011;109;19.806;-70.704;2023-06-26T09:19:47;17.10;;;4.40;;
249;SDS011;109;19.806;-70.704;2023-06-26T09:22:14;9.00;;;4.30;;
249;SDS011;109;19.806;-70.704;2023-06-26T09:24:50;10.43;;;4.57;;
249;SDS011;109;19.806;-70.704;2023-06-26T09:27:17;10.00;;;4.60;;
249;SDS011;109;19.806;-70.704;2023-06-26T09:29:51;9.20;;;4.40;;
249;SDS011;109;19.806;-70.704;2023-06-26T09:32:17;15.10;;;4.30;;
249;SDS011;109;19.806;-70.704;2023-06-26T09:34:52;12.17;;;4.07;;
249;SDS011;109;19.806;-70.704;2023-06-26T09:37:28;11.50;;;3.83;;
249;SDS011;109;19.806;-70.704;2023-06-26T09:39:54;8.80;;;3.87;;
249;SDS011;109;19.806;-70.704;2023-06-26T09:42:40;7.57;;;4.27;;
249;SDS011;109;19.806;-70.704;2023-06-26T09:45:23;9.00;;;4.40;;
249;SDS011;109;19.806;-70.704;2023-06-26T09:47:59;8.70;;;4.40;;
249;SDS011;109;19.806;-70.704;2023-06-26T09:50:38;7.23;;;4.00;;
249;SDS011;109;19.806;-70.704;2023-06-26T09:53:08;9.53;;;4.07;;
249;SDS011;109;19.806;-70.704;2023-06-26T09:55:46;30.53;;;5.10;;
249;SDS011;109;19.806;-70.704;2023-06-26T09:58:12;9.87;;;4.30;;
249;SDS011;109;19.806;-70.704;2023-06-26T10:00:49;6.10;;;3.80;;
249;SDS011;109;19.806;-70.704;2023-06-26T10:03:16;8.50;;;4.37;;
249;SDS011;109;19.806;-70.704;2023-06-26T10:05:49;7.67;;;3.97;;
249;SDS011;109;19.806;-70.704;2023-06-26T10:08:16;9.77;;;4.47;;
249;SDS011;109;19.806;-70.704;2023-06-26T10:10:50;12.07;;;4.50;;
249;SDS011;109;19.806;-70.704;2023-06-26T10:13:27;11.63;;;4.27;;
249;SDS011;109;19.806;-70.704;2023-06-26T10:16:17;11.00;;;3.80;;
249;SDS011;109;19.806;-70.704;2023-06-26T10:18:56;13.83;;;4.30;;
249;SDS011;109;19.806;-70.704;2023-06-26T10:21:34;10.60;;;4.73;;
249;SDS011;109;19.806;-70.704;2023-06-26T10:24:11;8.73;;;4.60;;
249;SDS011;109;19.806;-70.704;2023-06-26T10:26:41;14.57;;;5.10;;
249;SDS011;109;19.806;-70.704;2023-06-26T10:29:18;11.83;;;5.40;;
249;SDS011;109;19.806;-70.704;2023-06-26T10:31:56;13.03;;;5.00;;
249;SDS011;109;19.806;-70.704;2023-06-26T10:34:24;8.90;;;4.10;;
249;SDS011;109;19.806;-70.704;2023-06-26T10:37:44;11.07;;;4.70;;
249;SDS011;109;19.806;-70.704;2023-06-26T10:41:00;6.97;;;4.33;;
249;SDS011;109;19.806;-70.704;2023-06-26T10:43:29;15.67;;;4.90;;
249;SDS011;109;19.806;-70.704;2023-06-26T10:46:03;10.03;;;4.83;;
249;SDS011;109;19.806;-70.704;2023-06-26T10:48:29;9.80;;;4.43;;
249;SDS011;109;19.806;-70.704;2023-06-26T10:51:35;12.97;;;4.43;;
249;SDS011;109;19.806;-70.704;2023-06-26T10:53:55;7.90;;;4.30;;
249;SDS011;109;19.806;-70.704;2023-06-26T10:56:44;7.67;;;4.53;;
249;SDS011;109;19.806;-70.704;2023-06-26T10:59:14;8.93;;;4.50;;
249;SDS011;109;19.806;-70.704;2023-06-26T11:01:46;14.33;;;4.03;;
249;SDS011;109;19.806;-70.704;2023-06-26T11:15:13;9.37;;;3.37;;
249;SDS011;109;19.806;-70.704;2023-06-26T11:17:41;9.43;;;3.50;;
249;SDS011;109;19.806;-70.704;2023-06-26T11:20:10;6.90;;;3.70;;
249;SDS011;109;19.806;-70.704;2023-06-26T11:22:39;8.20;;;3.57;;
249;SDS011;109;19.806;-70.704;2023-06-26T11:25:07;10.30;;;3.73;;
249;SDS011;109;19.806;-70.704;2023-06-26T11:30:08;5.17;;;3.60;;
249;SDS011;109;19.806;-70.704;2023-06-26T11:32:36;7.97;;;3.40;;
249;SDS011;109;19.806;-70.704;2023-06-26T11:35:04;9.70;;;3.67;;
249;SDS011;109;19.806;-70.704;2023-06-26T11:37:31;12.40;;;3.67;;
249;SDS011;109;19.806;-70.704;2023-06-26T11:39:59;6.27;;;3.37;;
249;SDS011;109;19.806;-70.704;2023-06-26T11:42:41;11.53;;;3.30;;
249;SDS011;109;19.806;-70.704;2023-06-26T11:45:07;11.83;;;3.67;;
249;SDS011;109;19.806;-70.704;2023-06-26T11:47:35;7.40;;;3.60;;
249;SDS011;109;19.806;-70.704;2023-06-26T11:50:05;7.60;;;3.73;;
249;SDS011;109;19.806;-70.704;2023-06-26T11:52:32;10.00;;;3.73;;
249;SDS011;109;19.806;-70.704;2023-06-26T11:54:59;6.57;;;3.50;;
249;SDS011;109;19.806;-70.704;2023-06-26T11:57:25;12.30;;;4.20;;
249;SDS011;109;19.806;-70.704;2023-06-26T11:59:52;5.50;;;3.47;;
249;SDS011;109;19.806;-70.704;2023-06-26T12:02:18;11.40;;;4.00;;
249;SDS011;109;19.806;-70.704;2023-06-26T12:04:46;9.10;;;4.23;;
249;SDS011;109;19.806;-70.704;2023-06-26T12:07:13;16.60;;;4.20;;
249;SDS011;109;19.806;-70.704;2023-06-26T12:09:44;10.13;;;3.73;;
249;SDS011;109;19.806;-70.704;2023-06-26T12:12:13;16.30;;;4.00;;
249;SDS011;109;19.806;-70.704;2023-06-26T12:14:42;15.23;;;3.77;;
249;SDS011;109;19.806;-70.704;2023-06-26T12:17:09;10.70;;;3.70;;
249;SDS011;109;19.806;-70.704;2023-06-26T12:19:38;10.77;;;4.47;;
249;SDS011;109;19.806;-70.704;2023-06-26T12:22:06;18.40;;;4.60;;
249;SDS011;109;19.806;-70.704;2023-06-26T12:24:33;10.70;;;3.83;;
249;SDS011;109;19.806;-70.704;2023-06-26T12:27:02;13.63;;;4.00;;
249;SDS011;109;19.806;-70.704;2023-06-26T12:29:33;12.33;;;3.87;;
249;SDS011;109;19.806;-70.704;2023-06-26T12:32:00;7.10;;;4.23;;
249;SDS011;109;19.806;-70.704;2023-06-26T12:34:31;7.07;;;4.00;;
249;SDS011;109;19.806;-70.704;2023-06-26T12:37:02;8.80;;;5.23;;
249;SDS011;109;19.806;-70.704;2023-06-26T12:42:16;9.87;;;4.47;;
249;SDS011;109;19.806;-70.704;2023-06-26T12:44:44;12.67;;;5.27;;
249;SDS011;109;19.806;-70.704;2023-06-26T12:47:10;10.70;;;5.20;;
249;SDS011;109;19.806;-70.704;2023-06-26T12:49:41;14.33;;;5.63;;
249;SDS011;109;19.806;-70.704;2023-06-26T12:52:12;12.07;;;4.60;;
249;SDS011;109;19.806;-70.704;2023-06-26T12:54:40;7.90;;;4.17;;
249;SDS011;109;19.806;-70.704;2023-06-26T12:57:12;13.10;;;4.20;;
249;SDS011;109;19.806;-70.704;2023-06-26T12:59:42;9.30;;;4.10;;
249;SDS011;109;19.806;-70.704;2023-06-26T13:02:09;9.97;;;3.90;;
249;SDS011;109;19.806;-70.704;2023-06-26T13:04:39;16.10;;;4.93;;
249;SDS011;109;19.806;-70.704;2023-06-26T13:07:08;12.47;;;5.13;;
249;SDS011;109;19.806;-70.704;2023-06-26T13:09:36;16.13;;;6.07;;
249;SDS011;109;19.806;-70.704;2023-06-26T13:12:04;11.27;;;5.13;;
249;SDS011;109;19.806;-70.704;2023-06-26T13:14:31;8.27;;;4.73;;
249;SDS011;109;19.806;-70.704;2023-06-26T13:16:59;11.43;;;5.20;;
249;SDS011;109;19.806;-70.704;2023-06-26T13:19:26;8.87;;;4.97;;
249;SDS011;109;19.806;-70.704;2023-06-26T13:21:53;16.83;;;4.90;;
249;SDS011;109;19.806;-70.704;2023-06-26T13:24:20;8.63;;;4.60;;
249;SDS011;109;19.806;-70.704;2023-06-26T13:26:46;15.47;;;4.80;;
249;SDS011;109;19.806;-70.704;2023-06-26T13:29:13;12.07;;;4.90;;
249;SDS011;109;19.806;-70.704;2023-06-26T13:31:39;18.60;;;4.80;;
249;SDS011;109;19.806;-70.704;2023-06-26T13:34:05;12.43;;;4.70;;
249;SDS011;109;19.806;-70.704;2023-06-26T13:36:32;10.80;;;4.57;;
249;SDS011;109;19.806;-70.704;2023-06-26T13:39:01;13.20;;;5.20;;
249;SDS011;109;19.806;-70.704;2023-06-26T13:41:29;8.93;;;4.70;;
249;SDS011;109;19.806;-70.704;2023-06-26T13:43:55;13.03;;;4.83;;
249;SDS011;109;19.806;-70.704;2023-06-26T13:46:22;13.00;;;4.87;;
249;SDS011;109;19.806;-70.704;2023-06-26T13:48:48;15.83;;;4.40;;
249;SDS011;109;19.806;-70.704;2023-06-26T13:51:15;7.30;;;3.90;;
249;SDS011;109;19.806;-70.704;2023-06-26T13:53:41;11.87;;;4.03;;
249;SDS011;109;19.806;-70.704;2023-06-26T13:56:07;6.67;;;3.90;;
249;SDS011;109;19.806;-70.704;2023-06-26T13:58:34;16.40;;;4.10;;
249;SDS011;109;19.806;-70.704;2023-06-26T14:01:02;10.27;;;3.57;;
249;SDS011;109;19.806;-70.704;2023-06-26T14:03:29;10.90;;;4.10;;
249;SDS011;109;19.806;-70.704;2023-06-26T14:05:56;9.07;;;4.10;;
249;SDS011;109;19.806;-70.704;2023-06-26T14:08:22;6.63;;;3.93;;
249;SDS011;109;19.806;-70.704;2023-06-26T14:10:49;12.80;;;4.63;;
249;SDS011;109;19.806;-70.704;2023-06-26T14:13:15;14.07;;;3.90;;
249;SDS011;109;19.806;-70.704;2023-06-26T14:15:42;7.27;;;3.30;;
249;SDS011;109;19.806;-70.704;2023-06-26T14:18:08;5.90;;;3.33;;
249;SDS011;109;19.806;-70.704;2023-06-26T14:20:35;6.53;;;3.73;;
249;SDS011;109;19.806;-70.704;2023-06-26T14:23:02;11.73;;;4.10;;
249;SDS011;109;19.806;-70.704;2023-06-26T14:25:28;10.53;;;4.10;;
249;SDS011;109;19.806;-70.704;2023-06-26T14:27:55;7.40;;;3.90;;
249;SDS011;109;19.806;-70.704;2023-06-26T14:30:23;8.87;;;3.90;;
249;SDS011;109;19.806;-70.704;2023-06-26T14:32:49;13.17;;;4.70;;
249;SDS011;109;19.806;-70.704;2023-06-26T14:35:16;7.80;;;3.67;;
249;SDS011;109;19.806;-70.704;2023-06-26T14:37:42;12.77;;;3.90;;
249;SDS011;109;19.806;-70.704;2023-06-26T14:40:09;8.90;;;3.87;;
249;SDS011;109;19.806;-70.704;2023-06-26T14:42:39;11.67;;;4.63;;
249;SDS011;109;19.806;-70.704;2023-06-26T14:45:06;8.50;;;3.53;;
249;SDS011;109;19.806;-70.704;2023-06-26T14:47:33;8.10;;;3.70;;
249;SDS011;109;19.806;-70.704;2023-06-26T14:49:59;12.33;;;3.83;;
249;SDS011;109;19.806;-70.704;2023-06-26T14:52:26;7.90;;;3.57;;
249;SDS011;109;19.806;-70.704;2023-06-26T14:54:52;11.60;;;4.23;;
249;SDS011;109;19.806;-70.704;2023-06-26T14:57:19;7.83;;;3.87;;
249;SDS011;109;19.806;-70.704;2023-06-26T14:59:45;7.43;;;3.53;;
249;SDS011;109;19.806;-70.704;2023-06-26T15:02:12;13.13;;;3.93;;
249;SDS011;109;19.806;-70.704;2023-06-26T15:04:38;15.00;;;4.00;;
249;SDS011;109;19.806;-70.704;2023-06-26T15:07:05;10.07;;;3.80;;
249;SDS011;109;19.806;-70.704;2023-06-26T15:09:31;7.13;;;3.80;;
249;SDS011;109;19.806;-70.704;2023-06-26T15:11:58;15.13;;;4.57;;
249;SDS011;109;19.806;-70.704;2023-06-26T15:14:24;15.30;;;5.10;;
249;SDS011;109;19.806;-70.704;2023-06-26T15:16:51;12.23;;;4.80;;
249;SDS011;109;19.806;-70.704;2023-06-26T15:19:17;10.97;;;4.37;;
249;SDS011;109;19.806;-70.704;2023-06-26T15:21:44;8.57;;;3.80;;
249;SDS011;109;19.806;-70.704;2023-06-26T15:24:10;8.37;;;3.93;;
249;SDS011;109;19.806;-70.704;2023-06-26T15:26:37;9.63;;;3.80;;
249;SDS011;109;19.806;-70.704;2023-06-26T15:29:03;12.60;;;4.40;;
249;SDS011;109;19.806;-70.704;2023-06-26T15:31:30;15.67;;;5.23;;
249;SDS011;109;19.806;-70.704;2023-06-26T15:33:56;11.63;;;4.00;;
249;SDS011;109;19.806;-70.704;2023-06-26T15:36:23;11.33;;;4.00;;
249;SDS011;109;19.806;-70.704;2023-06-26T15:38:49;14.43;;;4.60;;
249;SDS011;109;19.806;-70.704;2023-06-26T15:41:15;10.07;;;4.47;;
249;SDS011;109;19.806;-70.704;2023-06-26T15:43:42;12.60;;;3.93;;
249;SDS011;109;19.806;-70.704;2023-06-26T15:46:09;13.77;;;3.83;;
249;SDS011;109;19.806;-70.704;2023-06-26T15:48:35;8.43;;;3.63;;